Time;durP1;ratioP1;P1;durP2;ratioP2;P2;SDS_P1;SDS_P2;PMS_P1;PMS_P2;Temp;Humidity;BMP_temperature;BMP_pressure;BME280_temperature;BME280_humidity;BME280_pressure;Samples;Min_cycle;Max_cycle;Signal;HPM_P1;HPM_P2
2023/03/05 00:00:08;;;;;;;;;;;;;;;9.54;45.68;96970.19;4188245;28;5816;-65
2023/03/05 00:02:12;;;;;;;;;;;;;;;9.52;45.53;96964.28;4193669;28;5855;-65
2023/03/05 00:04:15;;;;;;;;;;;;;;;9.51;45.51;96967.06;4191453;28;5756;-65
2023/03/05 00:06:20;;;;;;;;;;;;;;;9.53;45.54;96973.03;4200135;28;5814;-65
2023/03/05 00:08:23;;;;;;;;;;;;;;;9.50;45.66;96960.16;4193826;28;5742;-66
2023/03/05 00:10:25;;;;;;;;;;;;;;;9.51;45.64;96964.44;4186694;28;5750;-65
2023/03/05 00:12:37;;;;;;;;;;;;;;;9.51;45.50;96967.06;4171274;28;5753;-65
2023/03/05 00:14:40;;;;;;;;;;;;;;;9.50;45.27;96968.09;4199550;28;5085;-65
2023/03/05 00:16:43;;;;;;;;;;;;;;;9.45;45.40;96968.63;4195935;28;5933;-65
2023/03/05 00:18:46;;;;;;;;;;;;;;;9.43;45.50;96969.81;4199091;28;5772;-65
2023/03/05 00:20:49;;;;;;;;;;;;;;;9.43;45.52;96970.66;4196514;28;5748;-65
2023/03/05 00:22:54;;;;;;;;;;;;;;;9.41;45.54;96963.91;4193860;28;5744;-65
2023/03/05 00:24:56;;;;;;;;;;;;;;;9.37;45.56;96965.25;4198124;28;5735;-65
2023/03/05 00:26:59;;;;;;;;;;;;;;;9.41;45.28;96963.91;4188331;28;5856;-65
2023/03/05 00:29:02;;;;;;;;;;;;;;;9.41;45.23;96966.56;4198803;28;5757;-64
2023/03/05 00:31:05;;;;;;;;;;;;;;;9.38;45.43;96964.25;4187676;28;5768;-64
2023/03/05 00:33:11;;;;;;;;;;;;;;;9.34;45.35;96962.00;4191141;28;5747;-65
2023/03/05 00:35:14;;;;;;;;;;;;;;;9.33;45.42;96965.63;4193815;28;6452;-65
2023/03/05 00:37:17;;;;;;;;;;;;;;;9.33;45.43;96965.63;4186089;28;5752;-65
2023/03/05 00:39:22;;;;;;;;;;;;;;;9.36;45.55;96967.09;4192315;28;5732;-65
2023/03/05 00:41:25;;;;;;;;;;;;;;;9.34;45.23;96971.72;4192154;28;5855;-65
2023/03/05 00:43:28;;;;;;;;;;;;;;;9.29;45.37;96969.63;4201110;28;5743;-65
2023/03/05 00:45:31;;;;;;;;;;;;;;;9.26;45.35;96969.97;4185904;28;5780;-64
2023/03/05 00:47:35;;;;;;;;;;;;;;;9.24;45.52;96976.44;4191459;28;5764;-65
2023/03/05 00:49:38;;;;;;;;;;;;;;;9.25;45.28;96978.06;4185193;28;5800;-65
2023/03/05 00:51:41;;;;;;;;;;;;;;;9.22;45.63;96981.91;4195773;28;5743;-65
2023/03/05 00:53:44;;;;;;;;;;;;;;;9.26;45.50;96969.16;4190551;28;5760;-65
2023/03/05 00:55:48;;;;;;;;;;;;;;;9.26;45.27;96975.25;4196433;28;5814;-65
2023/03/05 00:57:51;;;;;;;;;;;;;;;9.28;45.27;96967.97;4194455;28;5826;-66
2023/03/05 00:59:54;;;;;;;;;;;;;;;9.30;45.37;96975.75;4197422;28;5796;-65
2023/03/05 01:01:57;;;;;;;;;;;;;;;9.30;45.40;96968.63;4189387;28;5882;-64
2023/03/05 01:04:00;;;;;;;;;;;;;;;9.26;45.27;96975.25;4193128;28;5875;-65
2023/03/05 01:06:06;;;;;;;;;;;;;;;9.22;45.29;96968.72;4201417;28;5735;-64
2023/03/05 01:08:09;;;;;;;;;;;;;;;9.21;45.17;96968.91;4192948;28;5739;-65
2023/03/05 01:10:13;;;;;;;;;;;;;;;9.19;45.21;96965.63;4183396;28;5754;-65
2023/03/05 01:12:17;;;;;;;;;;;;;;;9.18;45.41;96970.09;4197258;28;5890;-65
2023/03/05 01:14:20;;;;;;;;;;;;;;;9.17;45.20;96971.06;4200814;28;5739;-64
2023/03/05 01:16:23;;;;;;;;;;;;;;;9.18;45.15;96967.44;4199892;28;5829;-65
2023/03/05 01:18:26;;;;;;;;;;;;;;;9.20;45.36;96960.16;4199511;28;5862;-65
2023/03/05 01:20:29;;;;;;;;;;;;;;;9.17;45.01;96963.13;4196780;28;7747;-65
2023/03/05 01:22:32;;;;;;;;;;;;;;;9.17;45.14;96963.13;4195466;28;5785;-65
2023/03/05 01:24:35;;;;;;;;;;;;;;;9.17;45.11;96957.03;4201302;28;5751;-65
2023/03/05 01:26:38;;;;;;;;;;;;;;;9.16;45.34;96953.59;4200140;28;5827;-65
2023/03/05 01:28:42;;;;;;;;;;;;;;;9.14;45.12;96954.78;4196365;28;5966;-65
2023/03/05 01:30:45;;;;;;;;;;;;;;;9.11;45.15;96955.97;4197539;28;6799;-65
2023/03/05 01:32:48;;;;;;;;;;;;;;;9.10;45.23;96948.22;4198844;28;5818;-67
2023/03/05 01:34:50;;;;;;;;;;;;;;;9.10;45.03;96954.31;4201076;28;7072;-65
2023/03/05 01:36:53;;;;;;;;;;;;;;;9.07;45.33;96946.78;4181064;28;5714;-65
2023/03/05 01:38:56;;;;;;;;;;;;;;;9.05;44.97;96946.94;4199946;28;5715;-65
2023/03/05 01:40:59;;;;;;;;;;;;;;;9.02;45.14;96946.47;4198868;28;5761;-65
2023/03/05 01:43:21;;;;;;;;;;;;;;;8.93;44.97;96935.19;4200647;28;5541;-65
2023/03/05 01:45:26;;;;;;;;;;;;;;;8.92;45.35;96938.81;4198929;28;7797;-65
2023/03/05 01:47:29;;;;;;;;;;;;;;;8.90;45.21;96937.38;4186839;28;5794;-65
2023/03/05 01:49:36;;;;;;;;;;;;;;;8.84;45.17;96938.09;4197629;28;5749;-65
2023/03/05 01:51:44;;;;;;;;;;;;;;;8.80;45.47;96937.63;4200348;28;5838;-65
2023/03/05 01:53:47;;;;;;;;;;;;;;;8.80;44.99;96936.81;4198507;28;5093;-65
2023/03/05 01:55:50;;;;;;;;;;;;;;;8.84;45.07;96932.84;4200370;28;5744;-65
2023/03/05 01:57:55;;;;;;;;;;;;;;;8.82;44.99;96937.44;4200480;28;5858;-65
2023/03/05 02:00:02;;;;;;;;;;;;;;;8.72;45.15;96938.53;4200336;28;5754;-65
2023/03/05 02:02:07;;;;;;;;;;;;;;;8.71;45.06;96926.31;4194770;28;5832;-65
2023/03/05 02:04:14;;;;;;;;;;;;;;;8.74;45.23;96928.63;4184142;28;5800;-65
2023/03/05 02:06:17;;;;;;;;;;;;;;;8.74;45.11;96926.00;4191819;28;5121;-65
2023/03/05 02:08:22;;;;;;;;;;;;;;;8.68;45.18;96921.41;4199725;28;5834;-65
2023/03/05 02:10:27;;;;;;;;;;;;;;;8.65;44.98;96919.13;4198660;28;5990;-65
2023/03/05 02:12:30;;;;;;;;;;;;;;;8.65;44.76;96916.50;4199960;28;5695;-65
2023/03/05 02:14:34;;;;;;;;;;;;;;;8.60;44.92;96910.94;4199154;28;5710;-64
2023/03/05 02:16:38;;;;;;;;;;;;;;;8.54;44.81;96911.66;4197788;28;5719;-65
2023/03/05 02:18:42;;;;;;;;;;;;;;;8.53;45.01;96915.28;4195196;28;5727;-65
2023/03/05 02:20:47;;;;;;;;;;;;;;;8.50;44.97;96920.94;4193541;28;5863;-65
2023/03/05 02:22:51;;;;;;;;;;;;;;;8.48;45.12;96915.00;4198538;28;5731;-66
2023/03/05 02:24:54;;;;;;;;;;;;;;;8.48;45.01;96907.09;4200536;28;5850;-65
2023/03/05 02:26:57;;;;;;;;;;;;;;;8.47;44.92;96913.34;4181297;28;5699;-63
2023/03/05 02:29:03;;;;;;;;;;;;;;;8.43;44.95;96919.97;4184063;28;5671;-64
2023/03/05 02:31:09;;;;;;;;;;;;;;;8.40;44.81;96915.06;4182317;28;6003;-65
2023/03/05 02:33:14;;;;;;;;;;;;;;;8.37;45.00;96910.94;4181886;28;6149;-65
2023/03/05 02:35:17;;;;;;;;;;;;;;;8.41;44.73;96914.06;4181348;28;5704;-65
2023/03/05 02:37:20;;;;;;;;;;;;;;;8.43;44.96;96906.81;4182583;28;5776;-65
2023/03/05 02:39:24;;;;;;;;;;;;;;;8.38;44.94;96911.78;4181041;28;5783;-65
2023/03/05 02:41:27;;;;;;;;;;;;;;;8.37;45.17;96902.22;4174587;28;5802;-65
2023/03/05 02:43:31;;;;;;;;;;;;;;;8.38;45.11;96903.88;4181064;28;5836;-65
2023/03/05 02:45:33;;;;;;;;;;;;;;;8.40;44.90;96904.53;4180440;28;5836;-65
2023/03/05 02:47:37;;;;;;;;;;;;;;;8.39;44.92;96897.63;4182787;28;5765;-65
2023/03/05 02:49:40;;;;;;;;;;;;;;;8.40;44.91;96899.25;4182176;28;5815;-65
2023/03/05 02:51:43;;;;;;;;;;;;;;;8.38;45.00;96898.59;4180167;28;5926;-65
2023/03/05 02:53:45;;;;;;;;;;;;;;;8.38;45.11;96898.59;4182137;28;5088;-65
2023/03/05 02:55:50;;;;;;;;;;;;;;;8.37;44.81;96904.88;4182908;28;5728;-65
2023/03/05 02:57:53;;;;;;;;;;;;;;;8.38;44.93;96906.50;4182433;28;5712;-65
2023/03/05 02:59:56;;;;;;;;;;;;;;;8.37;45.04;96902.22;4183576;28;5804;-65
2023/03/05 03:01:59;;;;;;;;;;;;;;;8.33;45.12;96901.75;4179911;28;5831;-65
2023/03/05 03:04:02;;;;;;;;;;;;;;;8.34;45.05;96899.94;4186332;28;5716;-65
2023/03/05 03:06:05;;;;;;;;;;;;;;;8.39;44.99;96901.09;4186091;28;5716;-65
2023/03/05 03:08:09;;;;;;;;;;;;;;;8.37;45.05;96900.41;4174457;28;5789;-65
2023/03/05 03:10:12;;;;;;;;;;;;;;;8.39;45.13;96903.72;4185304;28;5848;-65
2023/03/05 03:12:16;;;;;;;;;;;;;;;8.40;44.80;96902.72;4186016;28;5855;-65
2023/03/05 03:14:20;;;;;;;;;;;;;;;8.42;44.85;96906.00;4186152;28;5796;-65
2023/03/05 03:16:23;;;;;;;;;;;;;;;8.48;44.82;96907.09;4184100;28;6361;-65
2023/03/05 03:18:25;;;;;;;;;;;;;;;8.42;44.73;96899.91;4169947;28;5737;-65
2023/03/05 03:20:27;;;;;;;;;;;;;;;8.39;45.02;96903.72;4184619;28;5847;-65
2023/03/05 03:22:30;;;;;;;;;;;;;;;8.42;44.81;96899.91;4185656;28;5682;-65
2023/03/05 03:24:35;;;;;;;;;;;;;;;8.42;44.87;96903.34;4185271;28;5744;-65
2023/03/05 03:26:38;;;;;;;;;;;;;;;8.43;45.00;96912.91;4193725;28;5852;-65
2023/03/05 03:28:42;;;;;;;;;;;;;;;8.42;44.68;96906.00;4192786;28;5757;-65
2023/03/05 03:30:45;;;;;;;;;;;;;;;8.39;44.70;96910.81;4185962;28;5748;-65
2023/03/05 03:32:48;;;;;;;;;;;;;;;8.36;45.00;96913.78;4187420;28;5770;-65
2023/03/05 03:34:50;;;;;;;;;;;;;;;8.39;44.62;96902.91;4190295;28;5756;-64
2023/03/05 03:36:54;;;;;;;;;;;;;;;8.42;44.61;96907.81;4194228;28;5769;-65
2023/03/05 03:38:57;;;;;;;;;;;;;;;8.40;44.84;96896.63;4198555;28;5830;-65
2023/03/05 03:40:59;;;;;;;;;;;;;;;8.40;44.68;96909.81;4197659;28;5748;-65
2023/03/05 03:43:03;;;;;;;;;;;;;;;8.39;45.13;96898.44;4191330;28;5838;-65
2023/03/05 03:45:08;;;;;;;;;;;;;;;8.39;44.84;96905.53;4200936;28;5731;-65
2023/03/05 03:47:11;;;;;;;;;;;;;;;8.37;44.99;96900.41;4190370;28;5750;-65
2023/03/05 03:49:16;;;;;;;;;;;;;;;8.37;44.66;96899.59;4197047;28;5744;-65
2023/03/05 03:51:19;;;;;;;;;;;;;;;8.38;45.04;96895.97;4202554;28;5727;-65
2023/03/05 03:53:22;;;;;;;;;;;;;;;8.32;44.86;96901.91;4197545;28;5724;-65
2023/03/05 03:55:25;;;;;;;;;;;;;;;8.28;44.99;96884.84;4201634;28;5806;-65
2023/03/05 03:57:29;;;;;;;;;;;;;;;8.26;45.08;96889.44;4201735;28;5778;-65
2023/03/05 03:59:32;;;;;;;;;;;;;;;8.20;45.11;96887.53;4200743;28;5770;-65
2023/03/05 04:01:36;;;;;;;;;;;;;;;8.15;45.22;96895.94;4200908;28;5845;-64
2023/03/05 04:03:39;;;;;;;;;;;;;;;8.10;45.09;96895.66;4201190;28;5806;-64
2023/03/05 04:05:42;;;;;;;;;;;;;;;8.09;45.26;96897.47;4201529;28;5943;-65
2023/03/05 04:07:45;;;;;;;;;;;;;;;8.14;45.23;96895.13;4202332;28;5738;-65
2023/03/05 04:09:48;;;;;;;;;;;;;;;8.14;45.07;96900.38;4200539;28;5910;-65
2023/03/05 04:11:51;;;;;;;;;;;;;;;8.07;45.35;96894.19;4199657;28;5819;-65
2023/03/05 04:13:54;;;;;;;;;;;;;;;8.01;45.47;96894.06;4201141;28;5755;-65
2023/03/05 04:15:57;;;;;;;;;;;;;;;7.99;45.40;96894.25;4200066;28;5743;-65
2023/03/05 04:18:01;;;;;;;;;;;;;;;7.95;45.40;96892.97;4196480;28;5749;-65
2023/03/05 04:20:06;;;;;;;;;;;;;;;7.93;45.28;96887.06;4199333;28;5798;-65
2023/03/05 04:22:10;;;;;;;;;;;;;;;7.95;45.51;96887.69;4200282;28;5735;-65
2023/03/05 04:24:14;;;;;;;;;;;;;;;7.93;45.46;96889.69;4202150;28;5778;-65
2023/03/05 04:26:17;;;;;;;;;;;;;;;7.90;45.44;96887.38;4200894;28;5856;-65
2023/03/05 04:28:19;;;;;;;;;;;;;;;7.88;45.62;96884.94;4202224;28;5720;-65
2023/03/05 04:30:22;;;;;;;;;;;;;;;7.87;45.73;96893.81;4195560;28;5966;-65
2023/03/05 04:32:27;;;;;;;;;;;;;;;7.86;45.69;96891.38;4187731;28;5948;-65
2023/03/05 04:34:31;;;;;;;;;;;;;;;7.87;45.47;96890.38;4200137;28;5859;-65
2023/03/05 04:36:35;;;;;;;;;;;;;;;7.87;45.63;96887.75;4201348;28;6395;-65
2023/03/05 04:38:38;;;;;;;;;;;;;;;7.87;45.85;96887.75;4201133;28;5751;-65
2023/03/05 04:40:41;;;;;;;;;;;;;;;7.85;45.65;96881.84;4201091;28;5930;-65
2023/03/05 04:42:44;;;;;;;;;;;;;;;7.81;45.64;96872.63;4198342;28;6992;-65
2023/03/05 04:44:47;;;;;;;;;;;;;;;7.79;45.70;96879.88;4200242;28;5747;-65
2023/03/05 04:46:50;;;;;;;;;;;;;;;7.77;45.77;96881.88;4198731;28;5735;-65
2023/03/05 04:48:53;;;;;;;;;;;;;;;7.76;45.81;96880.25;4201398;28;5843;-65
2023/03/05 04:50:58;;;;;;;;;;;;;;;7.81;45.91;96877.88;4188885;28;5816;-64
2023/03/05 04:53:00;;;;;;;;;;;;;;;7.86;45.68;96881.66;4189658;28;5764;-65
2023/03/05 04:55:04;;;;;;;;;;;;;;;7.88;45.80;96876.22;4181249;28;5892;-65
2023/03/05 04:57:08;;;;;;;;;;;;;;;7.93;45.54;96871.25;4201010;28;5978;-65
2023/03/05 04:59:11;;;;;;;;;;;;;;;7.97;45.76;96874.34;4187613;28;5743;-65
2023/03/05 05:01:13;;;;;;;;;;;;;;;7.96;45.60;96867.47;4198293;28;7586;-65
2023/03/05 05:03:16;;;;;;;;;;;;;;;7.92;45.53;96874.88;4199367;28;5834;-64
2023/03/05 05:05:21;;;;;;;;;;;;;;;7.90;45.79;96874.22;4198853;28;5763;-65
2023/03/05 05:07:25;;;;;;;;;;;;;;;7.88;45.85;96868.31;4200980;28;5813;-65
2023/03/05 05:09:28;;;;;;;;;;;;;;;7.87;45.80;96871.94;4199347;28;5718;-65
2023/03/05 05:11:31;;;;;;;;;;;;;;;7.85;45.85;96863.41;4200514;28;5758;-65
2023/03/05 05:13:34;;;;;;;;;;;;;;;7.82;46.00;96869.03;4198386;28;5879;-65
2023/03/05 05:15:40;;;;;;;;;;;;;;;7.78;46.04;96867.72;4196502;28;5787;-65
2023/03/05 05:17:43;;;;;;;;;;;;;;;7.78;46.06;96868.53;4197447;28;5830;-65
2023/03/05 05:19:46;;;;;;;;;;;;;;;7.76;46.00;96867.06;4192442;28;5835;-65
2023/03/05 05:21:49;;;;;;;;;;;;;;;7.75;46.16;96871.53;4195675;28;5878;-64
2023/03/05 05:23:53;;;;;;;;;;;;;;;7.73;46.01;96873.50;4200449;28;5849;-65
2023/03/05 05:25:57;;;;;;;;;;;;;;;7.72;46.11;96865.81;4198767;28;5088;-65
2023/03/05 05:28:00;;;;;;;;;;;;;;;7.73;46.26;96870.06;4199585;28;7723;-65
2023/03/05 05:30:04;;;;;;;;;;;;;;;7.76;46.05;96865.25;4197840;28;5736;-64
2023/03/05 05:32:07;;;;;;;;;;;;;;;7.74;45.97;96866.44;4198713;28;6138;-65
2023/03/05 05:34:11;;;;;;;;;;;;;;;7.73;46.11;96862.16;4200175;28;5755;-65
2023/03/05 05:36:17;;;;;;;;;;;;;;;7.73;46.22;96870.06;4182349;28;5749;-65
2023/03/05 05:38:21;;;;;;;;;;;;;;;7.73;46.03;96868.25;4200179;28;5752;-65
2023/03/05 05:40:25;;;;;;;;;;;;;;;7.71;46.30;96861.53;4198980;28;5747;-65
2023/03/05 05:42:28;;;;;;;;;;;;;;;7.69;46.11;96863.50;4200340;28;5758;-65
2023/03/05 05:44:33;;;;;;;;;;;;;;;7.65;46.46;96857.75;4196386;28;5763;-63
2023/03/05 05:46:37;;;;;;;;;;;;;;;7.63;46.15;96864.19;4197193;28;5751;-65
2023/03/05 05:48:40;;;;;;;;;;;;;;;7.59;46.45;96863.72;4197628;28;5743;-65
2023/03/05 05:50:43;;;;;;;;;;;;;;;7.55;46.56;96863.25;4195699;28;5961;-65
2023/03/05 05:52:46;;;;;;;;;;;;;;;7.55;46.35;96863.25;4197683;28;5749;-65
2023/03/05 05:54:49;;;;;;;;;;;;;;;7.56;46.34;96862.25;4192663;28;5799;-66
2023/03/05 05:56:53;;;;;;;;;;;;;;;7.58;46.42;96864.69;4188391;28;6597;-64
2023/03/05 05:58:56;;;;;;;;;;;;;;;7.58;46.46;96860.25;4192370;28;6462;-64
2023/03/05 06:00:59;;;;;;;;;;;;;;;7.62;46.69;96867.81;4192261;28;5861;-64
2023/03/05 06:03:02;;;;;;;;;;;;;;;7.63;46.44;96859.75;4191907;28;6569;-65
2023/03/05 06:05:07;;;;;;;;;;;;;;;7.64;46.59;96861.38;4197726;28;5743;-64
2023/03/05 06:07:10;;;;;;;;;;;;;;;7.62;46.54;96865.19;4187351;28;5764;-64
2023/03/05 06:09:13;;;;;;;;;;;;;;;7.61;46.67;96860.94;4198570;28;5850;-64
2023/03/05 06:11:17;;;;;;;;;;;;;;;7.61;46.48;96863.56;4184688;28;5752;-64
2023/03/05 06:13:22;;;;;;;;;;;;;;;7.59;46.60;96861.91;4191851;28;5851;-64
2023/03/05 06:15:25;;;;;;;;;;;;;;;7.61;46.75;96859.13;4184074;28;5839;-64
2023/03/05 06:17:28;;;;;;;;;;;;;;;7.62;46.68;96867.81;4200435;28;5775;-64
2023/03/05 06:19:32;;;;;;;;;;;;;;;7.61;46.62;96863.56;4199575;28;5850;-64
2023/03/05 06:21:36;;;;;;;;;;;;;;;7.61;46.73;96855.66;4199342;28;5771;-64
2023/03/05 06:23:39;;;;;;;;;;;;;;;7.64;46.68;96861.38;4199622;28;5728;-64
2023/03/05 06:25:42;;;;;;;;;;;;;;;7.67;46.81;96857.59;4199544;28;5710;-65
2023/03/05 06:27:44;;;;;;;;;;;;;;;7.64;46.98;96863.19;4200139;28;5722;-65
2023/03/05 06:29:52;;;;;;;;;;;;;;;7.64;46.87;96856.13;4197971;28;5727;-65
2023/03/05 06:31:55;;;;;;;;;;;;;;;7.67;46.90;96861.03;4199983;28;5729;-65
2023/03/05 06:34:01;;;;;;;;;;;;;;;7.68;46.85;96862.66;4198697;28;5185;-65
2023/03/05 06:36:05;;;;;;;;;;;;;;;7.66;46.85;96864.66;4197497;28;6706;-65
2023/03/05 06:38:09;;;;;;;;;;;;;;;7.67;47.00;96863.66;4196279;28;5761;-65
2023/03/05 06:40:13;;;;;;;;;;;;;;;7.69;47.01;96868.75;4195501;28;5760;-65
2023/03/05 06:42:18;;;;;;;;;;;;;;;7.72;46.97;96868.44;4202096;28;6550;-65
2023/03/05 06:44:20;;;;;;;;;;;;;;;7.76;46.89;96865.25;4200765;28;6537;-65
2023/03/05 06:46:27;;;;;;;;;;;;;;;7.77;46.90;96861.63;4200577;28;5706;-65
2023/03/05 06:48:30;;;;;;;;;;;;;;;7.79;46.81;96869.34;4185224;28;5091;-65
2023/03/05 06:50:34;;;;;;;;;;;;;;;7.79;46.90;96864.91;4185720;28;5730;-65
2023/03/05 06:52:39;;;;;;;;;;;;;;;7.81;47.09;96862.94;4203626;28;5950;-65
2023/03/05 06:54:42;;;;;;;;;;;;;;;7.85;46.88;96860.78;4202750;28;6952;-66
2023/03/05 06:56:47;;;;;;;;;;;;;;;7.89;46.90;96862.06;4202352;28;5735;-65
2023/03/05 06:58:52;;;;;;;;;;;;;;;7.93;46.96;96858.09;4203526;28;5799;-65
2023/03/05 07:00:54;;;;;;;;;;;;;;;7.99;46.90;96867.91;4198607;28;5738;-65
2023/03/05 07:02:59;;;;;;;;;;;;;;;8.01;46.74;96862.47;4193560;28;5699;-65
2023/03/05 07:05:02;;;;;;;;;;;;;;;8.06;46.85;96860.97;4202001;28;5695;-65
2023/03/05 07:07:05;;;;;;;;;;;;;;;8.09;47.02;96857.97;4202891;28;5760;-65
2023/03/05 07:09:11;;;;;;;;;;;;;;;8.13;46.84;96851.34;4200140;28;5732;-65
2023/03/05 07:11:16;;;;;;;;;;;;;;;8.16;46.83;96860.75;4202402;28;5721;-65
2023/03/05 07:13:18;;;;;;;;;;;;;;;8.19;46.62;96855.09;4202190;28;5732;-65
2023/03/05 07:15:21;;;;;;;;;;;;;;;8.23;46.61;96859.03;4200593;28;5739;-65
2023/03/05 07:17:24;;;;;;;;;;;;;;;8.22;46.73;96856.56;4201825;28;5881;-65
2023/03/05 07:19:28;;;;;;;;;;;;;;;8.20;46.99;96863.81;4201507;28;6547;-65
2023/03/05 07:21:33;;;;;;;;;;;;;;;8.17;46.81;96847.38;4199241;28;5775;-66
2023/03/05 07:23:39;;;;;;;;;;;;;;;8.26;46.94;96863.09;4197296;28;6481;-65
2023/03/05 07:25:42;;;;;;;;;;;;;;;8.24;46.99;96860.66;4196724;28;5814;-66
2023/03/05 07:27:44;;;;;;;;;;;;;;;8.18;47.06;96864.81;4190624;28;6584;-66
2023/03/05 07:29:47;;;;;;;;;;;;;;;8.19;47.12;96865.66;4199969;28;5765;-66
2023/03/05 07:31:50;;;;;;;;;;;;;;;8.25;46.80;96866.75;4201163;28;5923;-66
2023/03/05 07:33:53;;;;;;;;;;;;;;;8.29;46.90;96862.78;4201054;28;5739;-66
2023/03/05 07:35:57;;;;;;;;;;;;;;;8.30;46.90;96859.16;4202783;28;5865;-66
2023/03/05 07:38:00;;;;;;;;;;;;;;;8.35;46.65;96859.44;4197045;28;5798;-66
2023/03/05 07:40:04;;;;;;;;;;;;;;;8.38;46.76;96859.09;4170307;28;5687;-65
2023/03/05 07:42:07;;;;;;;;;;;;;;;8.38;46.92;96859.09;4193735;28;5760;-66
2023/03/05 07:44:10;;;;;;;;;;;;;;;8.37;46.86;96865.34;4200542;28;6528;-66
2023/03/05 07:46:16;;;;;;;;;;;;;;;8.38;47.17;96867.00;4195932;28;5921;-66
2023/03/05 07:48:20;;;;;;;;;;;;;;;8.37;47.05;96862.72;4191438;28;6479;-66
2023/03/05 07:50:23;;;;;;;;;;;;;;;8.38;47.20;96857.31;4193319;28;5764;-66
2023/03/05 07:52:27;;;;;;;;;;;;;;;8.46;46.98;96853.75;4202382;28;5767;-66
2023/03/05 07:54:30;;;;;;;;;;;;;;;8.50;46.72;96857.69;4201977;28;5735;-66
2023/03/05 07:56:35;;;;;;;;;;;;;;;8.53;46.86;96854.69;4194346;28;5742;-66
2023/03/05 07:58:38;;;;;;;;;;;;;;;8.58;46.80;96864.69;4193876;28;5743;-65
2023/03/05 08:00:41;;;;;;;;;;;;;;;8.61;46.91;96859.06;4193742;28;5855;-65
2023/03/05 08:02:44;;;;;;;;;;;;;;;8.67;46.88;96853.06;4196434;28;5894;-64
2023/03/05 08:04:47;;;;;;;;;;;;;;;8.68;46.85;96857.34;4202065;28;5747;-64
2023/03/05 08:06:50;;;;;;;;;;;;;;;8.68;46.99;96849.44;4200795;28;5826;-65
2023/03/05 08:08:55;;;;;;;;;;;;;;;8.71;47.01;96860.44;4197878;28;5735;-65
2023/03/05 08:11:03;;;;;;;;;;;;;;;8.69;47.23;96856.34;4193197;28;5830;-65
2023/03/05 08:13:06;;;;;;;;;;;;;;;8.70;47.25;96853.53;4193272;28;5806;-65
2023/03/05 08:15:10;;;;;;;;;;;;;;;8.68;46.97;96855.53;4195739;28;6458;-66
2023/03/05 08:17:13;;;;;;;;;;;;;;;8.68;47.13;96850.25;4193388;28;5858;-65
2023/03/05 08:19:16;;;;;;;;;;;;;;;8.69;47.33;96854.53;4200637;28;6432;-65
2023/03/05 08:21:21;;;;;;;;;;;;;;;8.70;47.06;96853.53;4191616;28;5695;-65
2023/03/05 08:23:23;;;;;;;;;;;;;;;8.71;47.30;96857.78;4199012;28;5715;-65
2023/03/05 08:25:28;;;;;;;;;;;;;;;8.71;46.84;96849.88;4191539;28;5787;-65
2023/03/05 08:27:31;;;;;;;;;;;;;;;8.71;47.18;96857.78;4190182;28;5893;-64
2023/03/05 08:29:34;;;;;;;;;;;;;;;8.71;46.88;96852.53;4199501;28;5852;-65
2023/03/05 08:31:37;;;;;;;;;;;;;;;8.71;46.92;96849.06;4200616;28;5739;-64
2023/03/05 08:33:40;;;;;;;;;;;;;;;8.70;47.01;96848.25;4199553;28;5810;-65
2023/03/05 08:35:43;;;;;;;;;;;;;;;8.78;47.03;96849.19;4194336;28;5897;-64
2023/03/05 08:37:46;;;;;;;;;;;;;;;8.82;47.11;96850.44;4188058;28;5974;-65
2023/03/05 08:39:49;;;;;;;;;;;;;;;8.91;47.02;96841.47;4188624;28;5739;-65
2023/03/05 08:41:53;;;;;;;;;;;;;;;8.94;46.68;96843.72;4199492;28;5859;-65
2023/03/05 08:43:56;;;;;;;;;;;;;;;8.89;47.15;96840.81;4171696;28;5839;-65
2023/03/05 08:46:00;;;;;;;;;;;;;;;8.89;47.17;96843.47;4191507;28;5803;-64
2023/03/05 08:48:03;;;;;;;;;;;;;;;8.88;47.18;96844.47;4195256;28;5822;-65
2023/03/05 08:50:06;;;;;;;;;;;;;;;8.92;47.07;96843.09;4186720;28;5847;-65
2023/03/05 08:52:09;;;;;;;;;;;;;;;8.90;46.97;96839.81;4184764;28;5904;-64
2023/03/05 08:54:12;;;;;;;;;;;;;;;8.90;47.05;96842.47;4196038;28;5740;-64
2023/03/05 08:56:15;;;;;;;;;;;;;;;8.93;47.03;96842.09;4199391;28;6548;-63
2023/03/05 08:58:19;;;;;;;;;;;;;;;8.97;46.98;96846.03;4187328;28;5732;-64
2023/03/05 09:00:23;;;;;;;;;;;;;;;9.02;47.21;96846.28;4187576;28;5753;-63
2023/03/05 09:02:26;;;;;;;;;;;;;;;9.03;47.05;96842.63;4186986;28;5863;-64
2023/03/05 09:04:28;;;;;;;;;;;;;;;9.07;47.32;96838.66;4199741;28;5963;-64
2023/03/05 09:06:33;;;;;;;;;;;;;;;9.04;47.33;96839.81;4185117;28;5999;-64
2023/03/05 09:08:36;;;;;;;;;;;;;;;9.04;47.33;96844.28;4190116;28;6454;-64
2023/03/05 09:10:41;;;;;;;;;;;;;;;9.09;46.98;96839.28;4199003;28;5728;-64
2023/03/05 09:12:44;;;;;;;;;;;;;;;9.13;46.99;96837.91;4197395;28;6563;-64
2023/03/05 09:14:48;;;;;;;;;;;;;;;9.18;46.98;96843.47;4196223;28;5735;-64
2023/03/05 09:16:51;;;;;;;;;;;;;;;9.17;46.90;96836.53;4182505;28;5714;-64
2023/03/05 09:18:54;;;;;;;;;;;;;;;9.15;47.01;96833.28;4197551;28;5803;-64
2023/03/05 09:20:57;;;;;;;;;;;;;;;9.15;47.12;96825.34;4196289;28;5848;-64
2023/03/05 09:23:00;;;;;;;;;;;;;;;9.16;47.14;96827.00;4197363;28;5826;-64
2023/03/05 09:25:03;;;;;;;;;;;;;;;9.16;47.16;96820.91;4200936;28;5732;-64
2023/03/05 09:27:06;;;;;;;;;;;;;;;9.18;47.02;96825.00;4192347;28;6449;-64
2023/03/05 09:29:09;;;;;;;;;;;;;;;9.20;47.24;96823.00;4187102;28;5764;-65
2023/03/05 09:31:13;;;;;;;;;;;;;;;9.22;47.33;96820.19;4191054;28;6241;-63
2023/03/05 09:33:16;;;;;;;;;;;;;;;9.28;46.92;96819.44;4192308;28;5753;-64
2023/03/05 09:35:19;;;;;;;;;;;;;;;9.30;47.02;96818.25;4190567;28;5682;-64
2023/03/05 09:37:22;;;;;;;;;;;;;;;9.28;47.09;96812.31;4200669;28;5880;-65
2023/03/05 09:39:25;;;;;;;;;;;;;;;9.27;47.09;96818.59;4187477;28;5856;-65
2023/03/05 09:41:36;;;;;;;;;;;;;;;9.30;47.21;96807.72;4188518;28;5746;-65
2023/03/05 09:43:49;;;;;;;;;;;;;;;9.33;47.50;96806.50;4194273;28;5878;-65
2023/03/05 09:46:04;;;;;;;;;;;;;;;9.34;47.06;96811.59;4191601;28;5867;-65
2023/03/05 09:48:16;;;;;;;;;;;;;;;9.40;47.06;96811.84;4191968;28;5752;-65
2023/03/05 09:50:35;;;;;;;;;;;;;;;9.42;47.23;96805.41;4190364;28;5788;-65
2023/03/05 09:52:43;;;;;;;;;;;;;;;9.46;47.32;96805.84;4193566;28;5818;-65
2023/03/05 09:54:52;;;;;;;;;;;;;;;9.50;47.25;96807.91;4193948;28;6640;-65
2023/03/05 09:56:58;;;;;;;;;;;;;;;9.54;47.08;96808.38;4201201;28;5903;-65
2023/03/05 09:59:05;;;;;;;;;;;;;;;9.54;47.46;96805.75;4203107;28;5902;-65
2023/03/05 10:01:11;;;;;;;;;;;;;;;9.58;46.91;96802.53;4199788;28;5710;-65
2023/03/05 10:03:21;;;;;;;;;;;;;;;9.60;46.96;96797.88;4183596;28;6580;-64
2023/03/05 10:05:32;;;;;;;;;;;;;;;9.66;47.19;96803.44;4187834;28;5959;-65
2023/03/05 10:07:40;;;;;;;;;;;;;;;9.67;47.10;96797.97;4171104;28;6376;-65
2023/03/05 10:09:48;;;;;;;;;;;;;;;9.67;47.30;96795.31;4189953;28;5747;-64
2023/03/05 10:11:56;;;;;;;;;;;;;;;9.72;47.06;96790.28;4192793;28;5850;-64
2023/03/05 10:13:59;;;;;;;;;;;;;;;9.78;46.92;96789.56;4188455;28;5879;-64
2023/03/05 10:16:17;;;;;;;;;;;;;;;9.77;47.13;96780.00;4197507;28;5802;-64
2023/03/05 10:18:32;;;;;;;;;;;;;;;9.78;47.15;96786.91;4186698;28;5818;-64
2023/03/05 10:20:47;;;;;;;;;;;;;;;9.83;47.35;96779.22;4192441;28;5822;-65
2023/03/05 10:23:15;;;;;;;;;;;;;;;9.93;47.04;96776.28;4169384;28;5654;-64
2023/03/05 10:25:23;;;;;;;;;;;;;;;9.95;46.96;96778.72;4181212;28;5840;-64
2023/03/05 10:27:40;;;;;;;;;;;;;;;10.02;47.07;96776.97;4189120;28;5731;-64
2023/03/05 10:30:01;;;;;;;;;;;;;;;10.00;47.06;96771.06;4198356;28;5841;-64
2023/03/05 10:32:15;;;;;;;;;;;;;;;10.03;47.38;96774.13;4194074;28;6460;-65
2023/03/05 10:34:50;;;;;;;;;;;;;;;10.06;47.03;96772.94;4193753;28;5870;-64
2023/03/05 10:37:12;;;;;;;;;;;;;;;10.08;47.24;96765.63;4189265;28;5723;-64
2023/03/05 10:39:36;;;;;;;;;;;;;;;10.04;47.10;96756.47;4189859;28;5927;-64
2023/03/05 10:41:48;;;;;;;;;;;;;;;10.09;47.13;96762.84;4172622;28;5782;-65
2023/03/05 10:43:58;;;;;;;;;;;;;;;10.04;47.23;96753.81;4183176;28;6417;-64
2023/03/05 10:46:03;;;;;;;;;;;;;;;10.07;47.15;96754.25;4195038;28;6428;-65
2023/03/05 10:48:14;;;;;;;;;;;;;;;10.09;47.18;96748.81;4190962;28;7091;-64
2023/03/05 10:50:22;;;;;;;;;;;;;;;10.09;47.20;96749.63;4189654;28;5735;-64
2023/03/05 10:52:31;;;;;;;;;;;;;;;10.09;47.13;96743.53;4191154;28;5748;-64
2023/03/05 10:54:34;;;;;;;;;;;;;;;10.08;47.42;96741.88;4192936;28;5749;-65
2023/03/05 10:56:37;;;;;;;;;;;;;;;10.04;47.37;96741.44;4188270;28;5735;-64
2023/03/05 10:58:40;;;;;;;;;;;;;;;10.01;47.32;96735.72;4182385;28;5868;-64
2023/03/05 11:00:58;;;;;;;;;;;;;;;9.96;47.12;96730.19;4183691;28;5921;-64
2023/03/05 11:03:04;;;;;;;;;;;;;;;9.88;47.30;96725.88;4191048;28;5848;-65
2023/03/05 11:05:44;;;;;;;;;;;;;;;9.74;47.48;96730.22;4193476;28;5833;-64